createdAt,value
2022-09-15T00:00:42.274Z,99267.59
2022-09-15T00:03:10.076Z,99262.13
2022-09-15T00:05:37.853Z,99259.41
2022-09-15T00:08:05.618Z,99257.75
2022-09-15T00:10:33.557Z,99260.22
2022-09-15T00:13:01.333Z,99257.50
2022-09-15T00:15:29.057Z,99247.88
2022-09-15T00:17:56.856Z,99257.13
2022-09-15T00:20:24.526Z,99253.56
2022-09-15T00:22:52.186Z,99256.31
2022-09-15T00:25:19.863Z,99272.91
2022-09-15T00:27:47.820Z,99258.63
2022-09-15T00:30:15.564Z,99261.16
2022-09-15T00:32:43.370Z,99266.59
2022-09-15T00:35:11.025Z,99262.19
2022-09-15T00:37:38.744Z,99264.91
2022-09-15T00:40:06.687Z,99258.63
2022-09-15T00:42:34.375Z,99267.66
2022-09-15T00:45:02.264Z,99267.66
2022-09-15T00:47:29.936Z,99266.00
2022-09-15T00:49:59.373Z,99276.91
2022-09-15T00:52:27.231Z,99283.44
2022-09-15T00:54:54.948Z,99288.91
2022-09-15T00:57:22.812Z,99279.03
2022-09-15T00:59:50.541Z,99272.53
2022-09-15T01:02:18.431Z,99268.94
2022-09-15T01:04:46.169Z,99261.59
2022-09-15T01:07:14.063Z,99267.06
2022-09-15T01:09:41.890Z,99269.78
2022-09-15T01:12:09.560Z,99273.56
2022-09-15T01:14:37.235Z,99278.00
2022-09-15T01:17:07.019Z,99276.28
2022-09-15T01:19:34.844Z,99272.53
2022-09-15T01:22:02.532Z,99289.94
2022-09-15T01:24:30.396Z,99280.94
2022-09-15T01:26:58.222Z,99283.44
2022-09-15T01:29:25.868Z,99287.22
2022-09-15T01:32:11.387Z,99288.06
2022-09-15T01:34:39.130Z,99277.38
2022-09-15T01:37:06.888Z,99277.38
2022-09-15T01:39:34.587Z,99274.63
2022-09-15T01:42:02.595Z,99267.28
2022-09-15T01:44:30.264Z,99274.63
2022-09-15T01:46:58.441Z,99271.91
2022-09-15T01:49:26.410Z,99280.94
2022-09-15T01:51:54.139Z,99280.09
2022-09-15T01:54:22.001Z,99287.47
2022-09-15T01:56:49.986Z,99281.13
2022-09-15T01:59:17.765Z,99288.28
2022-09-15T02:01:50.302Z,99271.06
2022-09-15T02:04:18.045Z,99270.22
2022-09-15T02:06:45.728Z,99269.19
2022-09-15T02:09:13.828Z,99267.47
2022-09-15T02:11:41.810Z,99266.66
2022-09-15T02:14:11.586Z,99260.16
2022-09-15T02:16:39.363Z,99260.38
2022-09-15T02:19:08.869Z,99260.38
2022-09-15T02:21:37.399Z,99257.63
2022-09-15T02:24:05.076Z,99262.03
2022-09-15T02:26:32.770Z,99254.06
2022-09-15T02:29:00.442Z,99265.81
2022-09-15T02:31:28.218Z,99258.72
2022-09-15T02:33:56.740Z,99268.56
2022-09-15T02:36:24.365Z,99266.66
2022-09-15T02:38:52.130Z,99265.81
2022-09-15T02:41:19.910Z,99263.94
2022-09-15T02:43:47.538Z,99254.91
2022-09-15T02:46:15.892Z,99252.16
2022-09-15T02:48:43.617Z,99252.16
2022-09-15T02:51:11.274Z,99250.28
2022-09-15T02:53:39.086Z,99256.56
2022-09-15T02:56:07.063Z,99258.47
2022-09-15T02:58:34.965Z,99256.81
2022-09-15T03:01:02.919Z,99254.91
2022-09-15T03:03:30.722Z,99254.06
2022-09-15T03:06:16.398Z,99258.72
2022-09-15T03:08:44.238Z,99255.09
2022-09-15T03:11:12.250Z,99262.44
2022-09-15T03:13:40.084Z,99257.63
2022-09-15T03:16:07.794Z,99252.34
2022-09-15T03:18:35.696Z,99246.72
2022-09-15T03:21:03.508Z,99242.31
2022-09-15T03:23:31.194Z,99240.59
2022-09-15T03:25:59.618Z,99249.63
2022-09-15T03:28:27.568Z,99250.69
2022-09-15T03:30:55.275Z,99248.78
2022-09-15T03:33:23.171Z,99253.63
2022-09-15T03:35:50.833Z,99255.31
2022-09-15T03:38:18.509Z,99264.56
2022-09-15T03:40:46.204Z,99257.22
2022-09-15T03:43:18.508Z,99264.34
2022-09-15T03:45:46.462Z,99259.97
2022-09-15T03:48:14.183Z,99259.09
2022-09-15T03:50:41.851Z,99262.91
2022-09-15T03:53:09.533Z,99269.19
2022-09-15T03:55:37.318Z,99266.25
2022-09-15T03:58:04.978Z,99264.56
2022-09-15T04:00:32.850Z,99264.56
2022-09-15T04:03:00.560Z,99263.72
2022-09-15T04:05:28.940Z,99269.19
2022-09-15T04:07:56.587Z,99270.03
2022-09-15T04:10:24.865Z,99264.56
2022-09-15T04:12:52.569Z,99268.16
2022-09-15T04:15:20.221Z,99267.28
2022-09-15T04:17:47.900Z,99270.88
2022-09-15T04:20:17.236Z,99273.63
2022-09-15T04:22:44.957Z,99276.56
2022-09-15T04:25:12.630Z,99271.09
2022-09-15T04:27:40.248Z,99265.63
2022-09-15T04:30:07.893Z,99269.19
2022-09-15T04:32:36.665Z,99272.75
2022-09-15T04:35:04.950Z,99270.25
2022-09-15T04:37:33.443Z,99271.09
2022-09-15T04:40:01.317Z,99275.94
2022-09-15T04:42:29.050Z,99277.38
2022-09-15T04:44:56.730Z,99282.38
2022-09-15T04:47:24.403Z,99277.16
2022-09-15T04:49:52.069Z,99280.09
2022-09-15T04:52:20.005Z,99279.06
2022-09-15T04:54:47.657Z,99280.94
2022-09-15T04:57:15.315Z,99278.66
2022-09-15T04:59:42.987Z,99275.72
2022-09-15T05:02:10.682Z,99279.28
2022-09-15T05:04:38.443Z,99276.34
2022-09-15T05:07:06.133Z,99282.63
2022-09-15T05:09:33.809Z,99284.75
2022-09-15T05:12:01.669Z,99279.91
2022-09-15T05:14:30.058Z,99274.66
2022-09-15T05:16:57.844Z,99280.09
2022-09-15T05:19:25.623Z,99285.38
2022-09-15T05:21:53.301Z,99277.81
2022-09-15T05:24:21.156Z,99286.19
2022-09-15T05:26:48.940Z,99286.41
2022-09-15T05:29:16.641Z,99284.53
2022-09-15T05:31:44.376Z,99288.09
2022-09-15T05:34:12.351Z,99287.03
2022-09-15T05:36:40.040Z,99292.72
2022-09-15T05:39:07.806Z,99288.91
2022-09-15T05:41:35.521Z,99294.38
2022-09-15T05:44:03.218Z,99290.81
2022-09-15T05:46:31.142Z,99303.41
2022-09-15T05:48:58.885Z,99296.94
2022-09-15T05:51:26.710Z,99301.50
2022-09-15T05:53:54.439Z,99295.88
2022-09-15T05:56:22.152Z,99300.25
2022-09-15T05:58:49.896Z,99296.69
2022-09-15T06:01:17.590Z,99296.94
2022-09-15T06:03:45.246Z,99301.94
2022-09-15T06:06:13.202Z,99300.25
2022-09-15T06:08:44.080Z,99297.53
2022-09-15T06:11:12.215Z,99302.97
2022-09-15T06:13:40.212Z,99300.50
2022-09-15T06:16:07.978Z,99299.44
2022-09-15T06:18:35.912Z,99303.84
2022-09-15T06:21:03.610Z,99295.88
2022-09-15T06:23:31.328Z,99306.78
2022-09-15T06:25:58.994Z,99302.97
2022-09-15T06:28:26.732Z,99307.63
2022-09-15T06:30:54.542Z,99304.06
2022-09-15T06:33:22.241Z,99304.06
2022-09-15T06:35:49.975Z,99313.09
2022-09-15T06:38:17.644Z,99310.13
2022-09-15T06:40:45.311Z,99319.38
2022-09-15T06:43:13.001Z,99312.25
2022-09-15T06:45:40.712Z,99316.63
2022-09-15T06:48:23.937Z,99320.44
2022-09-15T06:50:51.966Z,99321.50
2022-09-15T06:53:20.194Z,99321.28
2022-09-15T06:55:47.891Z,99324.00
2022-09-15T06:58:15.611Z,99324.84
2022-09-15T07:00:43.347Z,99329.25
2022-09-15T07:03:11.125Z,99325.91
2022-09-15T07:05:38.854Z,99328.63
2022-09-15T07:08:06.549Z,99324.25
2022-09-15T07:10:34.257Z,99322.09
2022-09-15T07:13:03.249Z,99324.63
2022-09-15T07:15:31.518Z,99323.78
2022-09-15T07:17:59.212Z,99328.44
2022-09-15T07:20:27.531Z,99336.38
2022-09-15T07:22:55.359Z,99333.66
2022-09-15T07:25:23.056Z,99337.44
2022-09-15T07:27:51.197Z,99331.16
2022-09-15T07:30:18.868Z,99338.50
2022-09-15T07:32:46.530Z,99351.09
2022-09-15T07:35:14.303Z,99344.81
2022-09-15T07:37:41.999Z,99341.00
2022-09-15T07:40:09.748Z,99340.19
2022-09-15T07:42:37.497Z,99349.19
2022-09-15T07:45:05.379Z,99350.03
2022-09-15T07:47:33.059Z,99353.59
2022-09-15T07:50:00.713Z,99359.91
2022-09-15T07:52:28.367Z,99353.59
2022-09-15T07:54:56.013Z,99361.56
2022-09-15T07:57:24.037Z,99360.75
2022-09-15T07:59:51.813Z,99360.75
2022-09-15T08:02:19.591Z,99368.69
2022-09-15T08:04:47.322Z,99365.97
2022-09-15T08:07:14.941Z,99364.09
2022-09-15T08:09:42.602Z,99367.03
2022-09-15T08:12:10.268Z,99366.81
2022-09-15T08:14:38.311Z,99363.47
2022-09-15T08:17:10.755Z,99374.16
2022-09-15T08:19:39.160Z,99364.09
2022-09-15T08:22:07.153Z,99365.75
2022-09-15T08:24:34.818Z,99367.41
2022-09-15T08:27:02.608Z,99369.31
2022-09-15T08:29:30.475Z,99374.56
2022-09-15T08:31:58.196Z,99378.13
2022-09-15T08:34:25.858Z,99383.59
2022-09-15T08:36:53.535Z,99379.19
2022-09-15T08:39:21.187Z,99381.47
2022-09-15T08:41:48.928Z,99384.22
2022-09-15T08:44:17.123Z,99387.97
2022-09-15T08:46:44.915Z,99389.69
2022-09-15T08:49:13.144Z,99391.78
2022-09-15T08:51:40.867Z,99395.59
2022-09-15T08:54:08.554Z,99379.19
2022-09-15T08:56:37.076Z,99377.50
2022-09-15T08:59:05.097Z,99381.06
2022-09-15T09:01:34.160Z,99385.50
2022-09-15T09:04:01.933Z,99387.41
2022-09-15T09:06:29.595Z,99390.13
2022-09-15T09:08:57.289Z,99388.84
2022-09-15T09:11:24.961Z,99389.69
2022-09-15T09:13:52.910Z,99388.84
2022-09-15T09:16:20.686Z,99389.69
2022-09-15T09:18:48.751Z,99391.56
2022-09-15T09:21:16.488Z,99391.78
2022-09-15T09:23:44.414Z,99385.25
2022-09-15T09:26:12.141Z,99383.59
2022-09-15T09:28:39.860Z,99382.53
2022-09-15T09:31:08.300Z,99377.06
2022-09-15T09:33:38.621Z,99377.91
2022-09-15T09:36:06.704Z,99373.28
2022-09-15T09:38:34.370Z,99379.59
2022-09-15T09:41:02.728Z,99376.59
2022-09-15T09:43:30.613Z,99378.31
2022-09-15T09:45:59.342Z,99373.88
2022-09-15T09:48:27.248Z,99370.31
2022-09-15T09:50:55.275Z,99376.59
2022-09-15T09:53:22.980Z,99370.09
2022-09-15T09:55:50.674Z,99372.84
2022-09-15T09:58:18.331Z,99364.66
2022-09-15T10:00:46.059Z,99369.03
2022-09-15T10:03:14.333Z,99365.25
2022-09-15T10:05:42.146Z,99364.19
2022-09-15T10:08:09.920Z,99354.72
2022-09-15T10:10:37.605Z,99351.78
2022-09-15T10:13:05.510Z,99356.38
2022-09-15T10:15:34.060Z,99353.66
2022-09-15T10:18:02.031Z,99357.66
2022-09-15T10:20:32.526Z,99353.66
2022-09-15T10:23:00.365Z,99343.56
2022-09-15T10:25:39.737Z,99346.06
2022-09-15T10:28:15.812Z,99340.41
2022-09-15T10:30:43.491Z,99349.78
2022-09-15T10:33:11.556Z,99343.97
2022-09-15T10:35:39.232Z,99337.03
2022-09-15T10:38:08.571Z,99331.22
2022-09-15T10:40:36.362Z,99339.63
2022-09-15T10:43:04.081Z,99339.00
2022-09-15T10:45:31.849Z,99340.91
2022-09-15T10:48:00.392Z,99349.09
2022-09-15T10:50:28.047Z,99335.44
2022-09-15T10:52:55.790Z,99335.63
2022-09-15T10:55:42.178Z,99338.38
2022-09-15T10:58:11.187Z,99347.63
2022-09-15T11:00:38.950Z,99356.66
2022-09-15T11:03:06.662Z,99353.09
2022-09-15T11:05:34.359Z,99356.91
2022-09-15T11:08:02.059Z,99355.22
2022-09-15T11:10:29.750Z,99363.41
2022-09-15T11:12:57.530Z,99366.13
2022-09-15T11:15:25.210Z,99367.81
2022-09-15T11:17:53.012Z,99366.13
2022-09-15T11:20:20.846Z,99366.13
2022-09-15T11:22:49.743Z,99374.56
2022-09-15T11:25:17.569Z,99362.81
2022-09-15T11:27:45.327Z,99378.75
2022-09-15T11:30:13.178Z,99376.03
2022-09-15T11:32:40.946Z,99374.94
2022-09-15T11:35:08.637Z,99388.59
2022-09-15T11:37:36.784Z,99385.25
2022-09-15T11:40:04.967Z,99378.50
2022-09-15T11:42:32.701Z,99384.22
2022-09-15T11:45:00.455Z,99378.50
2022-09-15T11:47:28.185Z,99378.50
2022-09-15T11:49:55.839Z,99378.31
2022-09-15T11:52:23.614Z,99374.50
2022-09-15T11:54:51.318Z,99365.84
2022-09-15T11:57:19.170Z,99366.94
2022-09-15T11:59:47.008Z,99366.94
2022-09-15T12:59:40.751Z,99379.97
2022-09-15T13:24:47.391Z,99368.66
2022-09-15T14:40:19.433Z,99340.72
2022-09-15T15:52:36.034Z,99350.66
2022-09-15T15:55:04.130Z,99344.13
2022-09-15T15:57:33.024Z,99351.03
2022-09-15T16:00:01.034Z,99351.88
2022-09-15T16:02:28.880Z,99350.81
2022-09-15T16:04:56.640Z,99347.88
2022-09-15T16:07:24.384Z,99351.00
2022-09-15T16:09:54.195Z,99361.47
2022-09-15T16:12:22.033Z,99363.97
2022-09-15T16:14:49.963Z,99360.38
2022-09-15T16:17:18.328Z,99356.00
2022-09-15T16:19:46.223Z,99358.53
2022-09-15T16:22:14.234Z,99348.44
2022-09-15T16:24:45.145Z,99350.53
2022-09-15T16:27:12.927Z,99351.38
2022-09-15T16:29:40.639Z,99355.16
2022-09-15T16:32:08.864Z,99359.81
2022-09-15T16:34:36.870Z,99363.56
2022-09-15T16:37:04.700Z,99364.41
2022-09-15T16:39:32.499Z,99371.75
2022-09-15T16:44:28.510Z,99372.38
2022-09-15T16:46:56.719Z,99371.56
2022-09-15T16:49:24.952Z,99375.94
2022-09-15T16:51:52.955Z,99372.38
2022-09-15T16:54:22.040Z,99373.47
2022-09-15T16:56:49.905Z,99383.75
2022-09-15T16:59:18.263Z,99374.75
2022-09-15T17:01:46.231Z,99373.88
2022-09-15T17:04:14.250Z,99378.31
2022-09-15T17:06:42.153Z,99379.97
2022-09-15T17:09:09.988Z,99374.50
2022-09-15T17:11:38.139Z,99376.41
2022-09-15T17:14:06.095Z,99375.78
2022-09-15T17:16:34.254Z,99375.34
2022-09-15T17:19:03.085Z,99378.31
2022-09-15T17:21:30.874Z,99382.94
2022-09-15T17:23:59.015Z,99378.50
2022-09-15T17:26:31.271Z,99379.34
2022-09-15T17:28:59.747Z,99386.94
2022-09-15T17:31:28.147Z,99373.28
2022-09-15T17:33:56.449Z,99380.41
2022-09-15T17:36:24.445Z,99389.69
2022-09-15T17:38:55.919Z,99384.22
2022-09-15T17:41:24.017Z,99375.19
2022-09-15T17:43:52.414Z,99380.66
2022-09-15T17:46:20.466Z,99385.25
2022-09-15T17:48:50.340Z,99387.78
2022-09-15T17:51:18.486Z,99395.13
2022-09-15T17:53:47.110Z,99394.06
2022-09-15T17:56:14.958Z,99396.81
2022-09-15T17:58:43.275Z,99382.53
2022-09-15T18:01:11.109Z,99392.63
2022-09-15T18:03:39.147Z,99394.53
2022-09-15T18:06:06.972Z,99394.53
2022-09-15T18:08:35.929Z,99393.44
2022-09-15T18:11:03.797Z,99398.06
2022-09-15T18:13:31.851Z,99394.53
2022-09-15T18:15:59.751Z,99409.00
2022-09-15T18:18:27.587Z,99401.88
2022-09-15T18:20:55.569Z,99411.97
2022-09-15T18:23:46.098Z,99404.63
2022-09-15T18:26:16.672Z,99410.28
2022-09-15T18:28:44.486Z,99410.53
2022-09-15T18:31:12.352Z,99411.34
2022-09-15T18:33:40.151Z,99411.13
2022-09-15T18:36:08.095Z,99422.28
2022-09-15T18:38:35.870Z,99420.38
2022-09-15T18:41:07.076Z,99426.66
2022-09-15T18:43:37.340Z,99419.31
2022-09-15T18:46:05.612Z,99432.13
2022-09-15T18:48:33.487Z,99427.50
2022-09-15T18:51:01.828Z,99427.75
2022-09-15T18:53:29.633Z,99430.47
2022-09-15T18:55:57.401Z,99422.28
2022-09-15T18:58:25.230Z,99427.75
2022-09-15T19:00:53.076Z,99427.75
2022-09-15T19:03:20.890Z,99430.47
2022-09-15T19:05:51.811Z,99426.03
2022-09-15T19:08:20.030Z,99435.09
2022-09-15T19:10:50.035Z,99432.56
2022-09-15T19:13:18.066Z,99440.78
2022-09-15T19:15:48.138Z,99440.78
2022-09-15T19:18:17.085Z,99441.59
2022-09-15T19:20:44.885Z,99445.16
2022-09-15T19:23:12.689Z,99442.44
2022-09-15T19:25:46.275Z,99445.16
2022-09-15T19:28:17.122Z,99444.34
2022-09-15T19:30:56.438Z,99442.44
2022-09-15T19:33:33.613Z,99436.13
2022-09-15T19:36:26.940Z,99438.03
2022-09-15T19:41:54.636Z,99438.03
2022-09-15T19:44:30.690Z,99437.22
2022-09-15T19:47:11.919Z,99443.50
2022-09-15T19:49:40.949Z,99446.44
2022-09-15T19:52:11.027Z,99436.38
2022-09-15T19:54:39.301Z,99441.84
2022-09-15T19:57:07.405Z,99440.78
2022-09-15T19:59:35.512Z,99444.34
2022-09-15T20:02:06.588Z,99450.63
2022-09-15T20:04:34.416Z,99461.78
2022-09-15T20:07:02.779Z,99456.31
2022-09-15T20:09:31.065Z,99463.69
2022-09-15T20:12:04.309Z,99467.25
2022-09-15T20:14:32.135Z,99473.75
2022-09-15T20:17:01.375Z,99466.41
2022-09-15T20:19:29.645Z,99479.84
2022-09-15T20:21:57.500Z,99482.56
2022-09-15T20:24:25.570Z,99481.75
2022-09-15T20:26:56.487Z,99488.84
2022-09-15T20:29:24.239Z,99479.84
2022-09-15T20:31:52.351Z,99480.06
2022-09-15T20:34:20.149Z,99485.53
2022-09-15T20:36:48.028Z,99485.75
2022-09-15T20:39:22.344Z,99482.19
2022-09-15T20:41:50.657Z,99493.09
2022-09-15T20:44:18.433Z,99477.34
2022-09-15T20:46:46.464Z,99478.38
2022-09-15T20:49:14.341Z,99472.91
2022-09-15T20:51:42.755Z,99467.47
2022-09-15T20:54:11.034Z,99472.91
2022-09-15T20:56:39.002Z,99477.56
2022-09-15T20:59:10.302Z,99478.38
2022-09-15T21:01:38.512Z,99475.88
2022-09-15T21:04:06.438Z,99476.72
2022-09-15T21:06:34.548Z,99476.72
2022-09-15T21:09:02.494Z,99479.44
2022-09-15T21:11:30.534Z,99486.56
2022-09-15T21:13:59.540Z,99487.66
2022-09-15T21:16:27.544Z,99493.09
2022-09-15T21:18:55.549Z,99493.09
2022-09-15T21:21:23.517Z,99499.41
2022-09-15T21:23:52.089Z,99501.28
2022-09-15T21:26:20.482Z,99514.72
2022-09-15T21:28:48.823Z,99527.53
2022-09-15T21:31:16.556Z,99524.81
2022-09-15T21:33:44.347Z,99541.44
2022-09-15T21:36:12.079Z,99543.09
2022-09-15T21:38:40.629Z,99537.84
2022-09-15T21:41:08.996Z,99541.44
2022-09-15T21:43:37.073Z,99544.16
2022-09-15T21:46:05.010Z,99541.63
2022-09-15T21:48:32.964Z,99546.25
2022-09-15T21:51:00.659Z,99549.81
2022-09-15T21:53:28.390Z,99551.72
2022-09-15T21:55:56.703Z,99544.53
2022-09-15T21:58:26.033Z,99545.44
2022-09-15T22:00:54.101Z,99544.38
2022-09-15T22:03:22.021Z,99543.53
2022-09-15T22:05:49.920Z,99547.28
2022-09-15T22:08:17.956Z,99543.69
2022-09-15T22:10:45.645Z,99540.97
2022-09-15T22:13:13.345Z,99548.34
2022-09-15T22:15:41.045Z,99546.44
2022-09-15T22:18:08.877Z,99548.34
2022-09-15T22:20:36.795Z,99552.97
2022-09-15T22:23:04.793Z,99545.81
2022-09-15T22:25:32.833Z,99543.06
2022-09-15T22:28:00.641Z,99543.06
2022-09-15T22:30:28.454Z,99543.06
2022-09-15T22:32:56.572Z,99545.59
2022-09-15T22:35:25.162Z,99544.78
2022-09-15T22:37:53.082Z,99547.72
2022-09-15T22:40:20.936Z,99548.53
2022-09-15T22:42:48.908Z,99542.25
2022-09-15T22:45:16.578Z,99542.25
2022-09-15T22:47:44.454Z,99535.13
2022-09-15T22:50:12.338Z,99536.78
2022-09-15T22:52:40.004Z,99540.59
2022-09-15T22:55:07.886Z,99546.88
2022-09-15T22:57:39.690Z,99538.69
2022-09-15T23:00:07.360Z,99540.78
2022-09-15T23:02:35.482Z,99533.44
2022-09-15T23:05:03.303Z,99537.03
2022-09-15T23:07:31.105Z,99533.44
2022-09-15T23:09:59.456Z,99539.13
2022-09-15T23:12:27.153Z,99532.59
2022-09-15T23:14:54.820Z,99532.59
2022-09-15T23:17:22.913Z,99534.50
2022-09-15T23:19:50.604Z,99546.25
2022-09-15T23:22:18.412Z,99543.53
2022-09-15T23:24:46.077Z,99540.78
2022-09-15T23:27:13.858Z,99541.63
2022-09-15T23:29:41.563Z,99542.88
2022-09-15T23:32:10.159Z,99538.50
2022-09-15T23:34:37.842Z,99526.94
2022-09-15T23:37:05.498Z,99540.00
2022-09-15T23:39:33.168Z,99542.72
2022-09-15T23:42:01.340Z,99531.81
2022-09-15T23:44:29.423Z,99541.03
2022-09-15T23:46:57.710Z,99542.09
2022-09-15T23:49:25.457Z,99541.03
2022-09-15T23:51:53.107Z,99547.31
2022-09-15T23:54:20.827Z,99549.47
2022-09-15T23:56:48.523Z,99551.13
2022-09-15T23:59:16.146Z,99563.13
